Time;durP1;ratioP1;P1;durP2;ratioP2;P2;SDS_P1;SDS_P2;PMS_P1;PMS_P2;Temp;Humidity;BMP_temperature;BMP_pressure;BME280_temperature;BME280_humidity;BME280_pressure;Samples;Min_cycle;Max_cycle;Signal;HPM_P1;HPM_P2
2024/01/22 00:00:35;;;;;;;3.63;1.23;;;;;;;;;;4966224;28;20031;-84
2024/01/22 00:03:01;;;;;;;2.03;1.00;;;;;;;;;;4965702;28;20039;-84
2024/01/22 00:05:27;;;;;;;3.92;1.20;;;;;;;;;;4964626;28;20043;-84
2024/01/22 00:07:52;;;;;;;3.08;1.33;;;;;;;;;;4968719;28;20097;-84
2024/01/22 00:10:17;;;;;;;2.05;1.10;;;;;;;;;;4968517;28;20031;-83
2024/01/22 00:12:43;;;;;;;2.33;1.10;;;;;;;;;;4963887;28;20118;-85
2024/01/22 00:15:09;;;;;;;2.33;1.20;;;;;;;;;;4967008;28;20051;-84
2024/01/22 00:17:35;;;;;;;2.05;1.20;;;;;;;;;;4967405;28;20039;-83
2024/01/22 00:20:02;;;;;;;2.88;1.20;;;;;;;;;;4952122;28;20519;-83
2024/01/22 00:22:27;;;;;;;1.60;1.05;;;;;;;;;;4968830;28;20362;-84
2024/01/22 00:24:53;;;;;;;4.85;1.20;;;;;;;;;;4970061;28;20037;-85
2024/01/22 00:27:18;;;;;;;1.73;1.05;;;;;;;;;;4975311;28;20035;-84
2024/01/22 00:29:44;;;;;;;5.00;1.10;;;;;;;;;;4978930;28;20062;-84
2024/01/22 00:32:09;;;;;;;2.58;1.05;;;;;;;;;;4979019;28;20034;-83
2024/01/22 00:34:35;;;;;;;1.92;1.10;;;;;;;;;;4975434;28;20046;-83
2024/01/22 00:37:00;;;;;;;1.50;1.00;;;;;;;;;;4977608;28;20038;-84
2024/01/22 00:39:26;;;;;;;1.73;0.88;;;;;;;;;;4959272;28;20118;-84
2024/01/22 00:41:51;;;;;;;1.60;0.90;;;;;;;;;;4974358;28;20077;-83
2024/01/22 00:44:17;;;;;;;2.35;1.10;;;;;;;;;;4974011;28;20035;-84
2024/01/22 00:46:42;;;;;;;1.20;0.82;;;;;;;;;;4977106;28;20027;-85
2024/01/22 00:49:08;;;;;;;1.77;1.00;;;;;;;;;;4978112;28;20054;-84
2024/01/22 00:51:33;;;;;;;1.02;0.90;;;;;;;;;;4979494;28;20130;-85
2024/01/22 00:53:59;;;;;;;1.58;0.90;;;;;;;;;;4974478;28;20046;-83
2024/01/22 00:56:24;;;;;;;1.77;1.10;;;;;;;;;;4957780;28;20039;-83
2024/01/22 00:58:50;;;;;;;1.73;1.02;;;;;;;;;;4980569;28;20448;-84
2024/01/22 01:01:15;;;;;;;1.38;0.88;;;;;;;;;;4962821;28;20035;-84
2024/01/22 01:03:41;;;;;;;1.45;0.93;;;;;;;;;;4975563;28;20043;-84
2024/01/22 01:06:06;;;;;;;2.25;1.00;;;;;;;;;;4973938;28;20379;-85
2024/01/22 01:08:32;;;;;;;1.77;1.08;;;;;;;;;;4977302;28;20050;-84
2024/01/22 01:10:57;;;;;;;1.60;0.90;;;;;;;;;;4977274;28;20065;-85
2024/01/22 01:13:23;;;;;;;1.00;0.85;;;;;;;;;;4980997;28;20038;-85
2024/01/22 01:15:49;;;;;;;2.20;1.00;;;;;;;;;;4973409;28;20039;-84
2024/01/22 01:18:14;;;;;;;1.77;0.90;;;;;;;;;;4977307;28;20043;-84
2024/01/22 01:20:40;;;;;;;1.80;1.00;;;;;;;;;;4970911;28;20039;-84
2024/01/22 01:23:05;;;;;;;1.55;1.02;;;;;;;;;;4977846;28;20035;-83
2024/01/22 01:25:32;;;;;;;2.65;1.10;;;;;;;;;;4974788;28;20035;-84
2024/01/22 01:27:58;;;;;;;1.45;1.00;;;;;;;;;;4973834;28;20027;-84
2024/01/22 01:30:23;;;;;;;2.10;1.00;;;;;;;;;;4976283;28;20053;-84
2024/01/22 01:32:49;;;;;;;2.47;1.13;;;;;;;;;;4976524;28;20039;-84
2024/01/22 01:35:14;;;;;;;2.00;1.00;;;;;;;;;;4976252;28;20035;-83
2024/01/22 01:37:40;;;;;;;2.17;1.13;;;;;;;;;;4972535;28;20122;-84
2024/01/22 01:40:06;;;;;;;1.75;1.10;;;;;;;;;;4964463;28;20027;-84
2024/01/22 01:42:31;;;;;;;1.75;1.10;;;;;;;;;;4972984;28;20039;-84
2024/01/22 01:44:56;;;;;;;2.28;1.10;;;;;;;;;;4977918;28;20062;-84
2024/01/22 01:47:22;;;;;;;1.83;1.00;;;;;;;;;;4973815;28;20069;-84
2024/01/22 01:49:48;;;;;;;2.60;1.10;;;;;;;;;;4973242;28;20039;-84
2024/01/22 01:52:14;;;;;;;1.73;1.20;;;;;;;;;;4970721;28;20035;-83
2024/01/22 01:54:44;;;;;;;2.22;1.00;;;;;;;;;;4969771;28;20070;-84
2024/01/22 01:57:10;;;;;;;1.77;1.08;;;;;;;;;;4966713;28;20053;-84
2024/01/22 01:59:38;;;;;;;2.47;1.20;;;;;;;;;;4963230;28;20523;-84
2024/01/22 02:02:05;;;;;;;2.55;1.13;;;;;;;;;;4967300;28;20039;-84
2024/01/22 02:04:31;;;;;;;2.08;1.10;;;;;;;;;;4945392;28;20043;-83
2024/01/22 02:06:56;;;;;;;1.70;1.13;;;;;;;;;;4970185;28;20098;-83
2024/01/22 02:09:22;;;;;;;2.20;1.10;;;;;;;;;;4977593;28;20045;-84
2024/01/22 02:11:47;;;;;;;1.40;1.00;;;;;;;;;;4969386;28;20037;-84
2024/01/22 02:14:13;;;;;;;2.00;1.10;;;;;;;;;;4965902;28;20030;-84
2024/01/22 02:16:38;;;;;;;1.42;0.90;;;;;;;;;;4972110;28;20428;-83
2024/01/22 02:19:04;;;;;;;1.85;1.00;;;;;;;;;;4952956;28;20031;-85
2024/01/22 02:21:29;;;;;;;2.75;1.00;;;;;;;;;;4972003;28;20034;-85
2024/01/22 02:23:55;;;;;;;1.70;0.90;;;;;;;;;;4972122;28;20043;-83
2024/01/22 02:26:20;;;;;;;1.73;0.98;;;;;;;;;;4971200;28;20095;-84
2024/01/22 02:28:46;;;;;;;1.00;0.80;;;;;;;;;;4970452;28;20118;-84
2024/01/22 02:31:11;;;;;;;2.08;1.20;;;;;;;;;;4968182;28;20046;-83
2024/01/22 02:33:37;;;;;;;1.60;1.02;;;;;;;;;;4970846;28;20039;-83
2024/01/22 02:36:03;;;;;;;1.45;0.98;;;;;;;;;;4972761;28;20394;-84
2024/01/22 02:38:29;;;;;;;2.33;0.90;;;;;;;;;;4971112;28;20119;-83
2024/01/22 02:40:54;;;;;;;2.20;1.15;;;;;;;;;;4968115;28;20059;-83
2024/01/22 02:43:20;;;;;;;1.80;1.08;;;;;;;;;;4971935;28;20042;-82
2024/01/22 02:45:47;;;;;;;1.55;0.93;;;;;;;;;;4968611;28;20027;-83
2024/01/22 02:48:12;;;;;;;4.85;1.10;;;;;;;;;;4971061;28;20047;-84
2024/01/22 02:50:38;;;;;;;1.58;1.00;;;;;;;;;;4970798;28;20065;-82
2024/01/22 02:53:03;;;;;;;1.92;1.00;;;;;;;;;;4967564;28;20036;-86
2024/01/22 02:55:29;;;;;;;1.83;1.00;;;;;;;;;;4968718;28;20105;-84
2024/01/22 02:57:54;;;;;;;2.00;1.10;;;;;;;;;;4970015;28;20057;-84
2024/01/22 03:00:20;;;;;;;2.40;1.00;;;;;;;;;;4969186;28;20040;-83
2024/01/22 03:02:45;;;;;;;1.63;1.10;;;;;;;;;;4971137;28;20110;-84
2024/01/22 03:05:11;;;;;;;1.60;1.00;;;;;;;;;;4965638;28;20046;-86
2024/01/22 03:07:37;;;;;;;2.30;1.00;;;;;;;;;;4964733;28;20039;-85
2024/01/22 03:10:02;;;;;;;1.42;0.90;;;;;;;;;;4971029;28;20050;-83
2024/01/22 03:12:28;;;;;;;3.08;1.10;;;;;;;;;;4970504;28;20045;-84
2024/01/22 03:14:53;;;;;;;1.85;1.20;;;;;;;;;;4966084;28;20110;-83
2024/01/22 03:17:19;;;;;;;2.03;1.00;;;;;;;;;;4965114;28;20038;-84
2024/01/22 03:19:44;;;;;;;4.00;1.02;;;;;;;;;;4963516;28;20057;-83
2024/01/22 03:22:10;;;;;;;2.58;1.27;;;;;;;;;;4964619;28;20121;-84
2024/01/22 03:24:36;;;;;;;1.73;1.20;;;;;;;;;;4965138;28;20045;-84
2024/01/22 03:27:02;;;;;;;4.03;1.20;;;;;;;;;;4961520;28;20044;-84
2024/01/22 03:29:27;;;;;;;2.63;1.05;;;;;;;;;;4959881;28;20114;-83
2024/01/22 03:31:53;;;;;;;3.45;0.90;;;;;;;;;;4980120;28;20039;-84
2024/01/22 03:34:19;;;;;;;2.13;0.90;;;;;;;;;;4954590;28;20040;-83
2024/01/22 03:36:44;;;;;;;1.83;1.00;;;;;;;;;;4966801;28;20490;-83
2024/01/22 03:39:10;;;;;;;1.67;0.90;;;;;;;;;;4968624;28;20038;-84
2024/01/22 03:41:35;;;;;;;4.07;0.90;;;;;;;;;;4956582;28;20050;-83
2024/01/22 03:44:02;;;;;;;1.83;1.10;;;;;;;;;;4968975;28;20488;-84
2024/01/22 03:46:28;;;;;;;1.85;1.00;;;;;;;;;;4965166;28;20035;-83
2024/01/22 03:48:53;;;;;;;2.20;1.00;;;;;;;;;;4950788;28;20105;-83
2024/01/22 03:51:19;;;;;;;3.30;1.10;;;;;;;;;;4972481;28;20035;-83
2024/01/22 03:53:44;;;;;;;3.15;1.05;;;;;;;;;;4968223;28;20035;-84
2024/01/22 03:56:10;;;;;;;2.05;1.05;;;;;;;;;;4967990;28;20039;-84
2024/01/22 03:58:35;;;;;;;2.85;1.10;;;;;;;;;;4971861;28;20046;-83
2024/01/22 04:01:01;;;;;;;1.40;0.90;;;;;;;;;;4971489;28;20037;-83
2024/01/22 04:03:27;;;;;;;2.28;1.15;;;;;;;;;;4970394;28;20083;-83
2024/01/22 04:05:52;;;;;;;2.05;1.13;;;;;;;;;;4973578;28;20493;-83
2024/01/22 04:08:18;;;;;;;2.80;1.10;;;;;;;;;;4966754;28;20032;-83
2024/01/22 04:10:43;;;;;;;3.60;1.50;;;;;;;;;;4969088;28;20042;-83
2024/01/22 04:13:09;;;;;;;4.07;1.10;;;;;;;;;;4972895;28;20666;-85
2024/01/22 04:15:34;;;;;;;2.15;1.15;;;;;;;;;;4970996;28;20031;-85
2024/01/22 04:18:00;;;;;;;1.45;0.90;;;;;;;;;;4971205;28;20031;-83
2024/01/22 04:20:26;;;;;;;2.03;1.08;;;;;;;;;;4971036;28;20563;-83
2024/01/22 04:22:51;;;;;;;3.53;1.05;;;;;;;;;;4951953;28;20041;-84
2024/01/22 04:25:17;;;;;;;1.70;1.00;;;;;;;;;;4972287;28;20070;-83
2024/01/22 04:27:42;;;;;;;2.13;0.90;;;;;;;;;;4969071;28;20042;-84
2024/01/22 04:30:08;;;;;;;1.63;0.85;;;;;;;;;;4968395;28;20047;-84
2024/01/22 04:32:34;;;;;;;12.95;1.40;;;;;;;;;;4965926;28;20047;-84
2024/01/22 04:35:00;;;;;;;3.45;1.00;;;;;;;;;;4972117;28;20150;-84
2024/01/22 04:37:26;;;;;;;2.08;1.10;;;;;;;;;;4971878;28;20038;-83
2024/01/22 04:39:51;;;;;;;5.35;1.10;;;;;;;;;;4971723;28;20035;-83
2024/01/22 04:42:20;;;;;;;2.40;1.13;;;;;;;;;;4968187;28;20042;-84
2024/01/22 04:44:46;;;;;;;1.67;1.00;;;;;;;;;;4970490;28;20393;-83
2024/01/22 04:47:11;;;;;;;1.55;0.95;;;;;;;;;;4970339;28;20085;-84
2024/01/22 04:49:37;;;;;;;2.45;1.17;;;;;;;;;;4966707;28;20043;-83
2024/01/22 04:52:02;;;;;;;1.20;0.88;;;;;;;;;;4967962;28;20106;-83
2024/01/22 04:54:28;;;;;;;2.78;1.10;;;;;;;;;;4966882;28;20035;-84
2024/01/22 04:56:54;;;;;;;1.58;1.10;;;;;;;;;;4979223;28;20038;-83
2024/01/22 04:59:20;;;;;;;1.98;1.10;;;;;;;;;;4973763;28;20031;-84
2024/01/22 05:01:45;;;;;;;1.77;1.10;;;;;;;;;;4973230;28;20035;-84
2024/01/22 05:04:11;;;;;;;2.67;1.27;;;;;;;;;;4971526;28;20096;-84
2024/01/22 05:06:36;;;;;;;3.28;1.80;;;;;;;;;;4971578;28;20038;-85
2024/01/22 05:09:04;;;;;;;4.13;1.10;;;;;;;;;;4966673;28;20034;-84
2024/01/22 05:11:30;;;;;;;1.23;0.90;;;;;;;;;;4967692;28;20497;-85
2024/01/22 05:13:57;;;;;;;1.85;0.70;;;;;;;;;;4970330;28;20121;-84
2024/01/22 05:16:22;;;;;;;1.85;0.80;;;;;;;;;;4969555;28;20486;-84
2024/01/22 05:18:51;;;;;;;1.13;0.88;;;;;;;;;;4968593;28;20035;-84
2024/01/22 05:21:16;;;;;;;3.50;0.82;;;;;;;;;;4964972;28;20058;-84
2024/01/22 05:23:42;;;;;;;1.98;1.10;;;;;;;;;;4969027;28;20497;-84
2024/01/22 05:26:08;;;;;;;1.65;1.02;;;;;;;;;;4969420;28;20116;-85
2024/01/22 05:28:34;;;;;;;3.28;1.90;;;;;;;;;;4968299;28;20503;-84
2024/01/22 05:31:00;;;;;;;5.45;2.95;;;;;;;;;;4965531;28;20612;-84
2024/01/22 05:33:26;;;;;;;8.30;2.88;;;;;;;;;;4947257;28;20044;-83
2024/01/22 05:35:52;;;;;;;1.58;1.00;;;;;;;;;;4966990;28;20046;-84
2024/01/22 05:38:17;;;;;;;1.60;1.08;;;;;;;;;;4949268;28;20047;-83
2024/01/22 05:40:43;;;;;;;1.77;1.10;;;;;;;;;;4967971;28;20111;-83
2024/01/22 05:43:08;;;;;;;2.95;1.20;;;;;;;;;;4969797;28;20034;-84
2024/01/22 05:45:34;;;;;;;1.80;0.82;;;;;;;;;;4967837;28;20050;-83
2024/01/22 05:47:59;;;;;;;1.38;0.90;;;;;;;;;;4970130;28;20038;-83
2024/01/22 05:50:25;;;;;;;1.85;1.10;;;;;;;;;;4953196;28;20030;-84
2024/01/22 05:52:50;;;;;;;2.25;1.13;;;;;;;;;;4964531;28;20624;-84
2024/01/22 05:55:15;;;;;;;1.70;1.08;;;;;;;;;;4965445;28;20058;-83
2024/01/22 05:57:41;;;;;;;1.48;1.00;;;;;;;;;;4966973;28;20043;-84
2024/01/22 06:00:12;;;;;;;1.80;1.17;;;;;;;;;;4965167;28;20030;-84
2024/01/22 06:02:39;;;;;;;2.35;1.30;;;;;;;;;;4961906;28;20026;-84
2024/01/22 06:05:05;;;;;;;3.97;1.90;;;;;;;;;;4966854;28;20035;-84
2024/01/22 06:07:30;;;;;;;2.90;1.30;;;;;;;;;;4966427;28;20042;-85
2024/01/22 06:09:56;;;;;;;1.83;1.10;;;;;;;;;;4956585;28;20069;-85
2024/01/22 06:12:21;;;;;;;1.50;0.98;;;;;;;;;;4969654;28;20037;-84
2024/01/22 06:14:46;;;;;;;1.02;0.80;;;;;;;;;;4944933;28;20031;-84
2024/01/22 06:17:12;;;;;;;2.08;0.95;;;;;;;;;;4964839;28;20042;-83
2024/01/22 06:19:38;;;;;;;4.65;0.90;;;;;;;;;;4979803;28;20531;-84
2024/01/22 06:22:04;;;;;;;1.85;1.20;;;;;;;;;;4964838;28;20058;-84
2024/01/22 06:24:29;;;;;;;1.58;1.02;;;;;;;;;;4965083;28;20039;-84
2024/01/22 06:26:54;;;;;;;1.50;0.75;;;;;;;;;;4969220;28;20065;-86
2024/01/22 06:29:20;;;;;;;5.93;1.65;;;;;;;;;;4953944;28;20038;-85
2024/01/22 06:31:45;;;;;;;6.07;1.60;;;;;;;;;;4966620;28;20055;-84
2024/01/22 06:34:14;;;;;;;8.20;2.65;;;;;;;;;;4975053;28;20031;-85
2024/01/22 06:36:39;;;;;;;2.88;1.52;;;;;;;;;;4968037;28;20088;-85
2024/01/22 06:39:08;;;;;;;1.83;0.80;;;;;;;;;;4970527;28;20392;-85
2024/01/22 06:41:36;;;;;;;3.17;0.70;;;;;;;;;;4964359;28;20035;-85
2024/01/22 06:44:01;;;;;;;1.15;0.88;;;;;;;;;;4963185;28;20031;-84
2024/01/22 06:46:27;;;;;;;1.90;1.02;;;;;;;;;;4965246;28;20131;-84
2024/01/22 06:48:52;;;;;;;0.95;0.80;;;;;;;;;;4967178;28;20424;-84
2024/01/22 06:51:18;;;;;;;1.70;1.10;;;;;;;;;;4963095;28;20039;-83
2024/01/22 06:53:44;;;;;;;1.65;1.05;;;;;;;;;;4965330;28;20054;-81
2024/01/22 06:56:09;;;;;;;1.05;0.88;;;;;;;;;;4969205;28;20062;-84
2024/01/22 06:58:35;;;;;;;2.35;1.10;;;;;;;;;;4950774;28;20101;-85
2024/01/22 07:01:01;;;;;;;3.92;1.50;;;;;;;;;;4968217;28;20481;-84
2024/01/22 07:03:26;;;;;;;2.03;0.90;;;;;;;;;;4969241;28;20027;-85
2024/01/22 07:05:52;;;;;;;1.60;0.95;;;;;;;;;;4963811;28;20418;-83
2024/01/22 07:08:18;;;;;;;1.75;1.10;;;;;;;;;;4949529;28;20049;-82
2024/01/22 07:10:44;;;;;;;1.83;1.00;;;;;;;;;;4967401;28;20035;-84
2024/01/22 07:13:09;;;;;;;1.90;1.02;;;;;;;;;;4964252;28;20034;-85
2024/01/22 07:15:35;;;;;;;3.90;1.30;;;;;;;;;;4965674;28;20042;-85
2024/01/22 07:18:00;;;;;;;2.55;1.40;;;;;;;;;;4967028;28;20118;-84
2024/01/22 07:20:26;;;;;;;2.63;1.30;;;;;;;;;;4949738;28;20123;-83
2024/01/22 07:22:53;;;;;;;2.50;1.20;;;;;;;;;;4967360;28;20062;-83
2024/01/22 07:25:19;;;;;;;2.25;1.20;;;;;;;;;;4962735;28;20062;-85
2024/01/22 07:27:44;;;;;;;1.58;0.93;;;;;;;;;;4967245;28;20031;-84
2024/01/22 07:30:12;;;;;;;2.60;0.85;;;;;;;;;;4965599;28;20480;-84
2024/01/22 07:32:40;;;;;;;1.42;0.90;;;;;;;;;;4963478;28;20125;-83
2024/01/22 07:35:10;;;;;;;3.25;1.00;;;;;;;;;;4949494;28;20085;-83
2024/01/22 07:37:42;;;;;;;2.55;1.10;;;;;;;;;;4961732;28;20090;-82
2024/01/22 07:40:11;;;;;;;3.60;1.20;;;;;;;;;;4964917;28;20382;-83
2024/01/22 07:42:38;;;;;;;2.70;0.98;;;;;;;;;;4969774;28;20038;-83
2024/01/22 07:45:05;;;;;;;4.43;1.45;;;;;;;;;;4972550;28;20519;-83
2024/01/22 07:47:32;;;;;;;0.93;0.70;;;;;;;;;;4966997;28;20027;-85
2024/01/22 07:49:58;;;;;;;1.40;0.85;;;;;;;;;;4960031;28;20511;-84
2024/01/22 07:52:23;;;;;;;3.88;1.10;;;;;;;;;;4966575;28;20054;-84
2024/01/22 07:54:49;;;;;;;4.22;1.00;;;;;;;;;;4951182;28;20109;-84
2024/01/22 07:57:15;;;;;;;10.02;1.02;;;;;;;;;;4968139;28;20560;-83
2024/01/22 07:59:41;;;;;;;3.30;0.80;;;;;;;;;;4967393;28;20038;-83
2024/01/22 08:02:07;;;;;;;3.38;1.30;;;;;;;;;;4968445;28;20042;-84
2024/01/22 08:04:33;;;;;;;4.07;1.65;;;;;;;;;;4972947;28;20120;-84
2024/01/22 08:07:00;;;;;;;3.65;1.80;;;;;;;;;;4965447;28;20082;-85
2024/01/22 08:09:26;;;;;;;10.07;2.30;;;;;;;;;;4968106;28;20062;-83
2024/01/22 08:11:52;;;;;;;2.97;1.42;;;;;;;;;;4974649;28;20023;-81
2024/01/22 08:14:17;;;;;;;1.60;1.02;;;;;;;;;;4966660;28;20089;-81
2024/01/22 08:16:44;;;;;;;1.92;1.23;;;;;;;;;;4969292;28;20094;-80
2024/01/22 08:19:10;;;;;;;3.58;1.10;;;;;;;;;;4966128;28;20046;-81
2024/01/22 08:21:36;;;;;;;2.30;1.27;;;;;;;;;;4965548;28;20046;-81
2024/01/22 08:24:01;;;;;;;1.15;0.82;;;;;;;;;;4968585;28;20035;-81
2024/01/22 08:26:27;;;;;;;1.17;0.80;;;;;;;;;;4970298;28;20035;-81
2024/01/22 08:28:52;;;;;;;8.38;1.50;;;;;;;;;;4968826;28;20038;-81
2024/01/22 08:31:18;;;;;;;10.15;1.52;;;;;;;;;;4945795;28;20917;-80
2024/01/22 08:33:44;;;;;;;3.65;1.30;;;;;;;;;;4966838;28;20039;-80
2024/01/22 08:36:10;;;;;;;1.60;1.02;;;;;;;;;;4970587;28;20050;-81
2024/01/22 08:38:35;;;;;;;1.77;0.98;;;;;;;;;;4968770;28;20034;-80
2024/01/22 08:41:03;;;;;;;8.05;1.70;;;;;;;;;;4968634;28;20105;-82
2024/01/22 08:43:29;;;;;;;2.13;1.10;;;;;;;;;;4969216;28;20026;-80
2024/01/22 08:45:54;;;;;;;2.03;1.00;;;;;;;;;;4967912;28;20083;-81
2024/01/22 08:48:20;;;;;;;2.72;0.93;;;;;;;;;;4967380;28;20066;-81
2024/01/22 08:50:45;;;;;;;1.23;0.80;;;;;;;;;;4968387;28;20054;-80
2024/01/22 08:53:11;;;;;;;2.88;1.05;;;;;;;;;;4970688;28;20047;-81
2024/01/22 08:55:36;;;;;;;1.20;0.80;;;;;;;;;;4967763;28;20050;-82
2024/01/22 08:58:02;;;;;;;2.08;0.85;;;;;;;;;;4968992;28;20039;-82
2024/01/22 09:00:27;;;;;;;1.52;0.88;;;;;;;;;;4966161;28;21997;-81
2024/01/22 09:02:53;;;;;;;1.40;0.73;;;;;;;;;;4962627;28;20043;-81
2024/01/22 09:05:18;;;;;;;3.08;0.90;;;;;;;;;;4976381;28;20035;-82
2024/01/22 09:07:45;;;;;;;1.88;1.10;;;;;;;;;;4972492;28;20039;-81
2024/01/22 09:10:11;;;;;;;1.77;1.10;;;;;;;;;;4968151;28;20496;-82
2024/01/22 09:12:37;;;;;;;1.80;0.90;;;;;;;;;;4970783;28;20058;-81
2024/01/22 09:15:04;;;;;;;2.45;1.00;;;;;;;;;;4972405;28;20436;-82
2024/01/22 09:17:30;;;;;;;3.22;0.90;;;;;;;;;;4970942;28;20038;-81
2024/01/22 09:19:56;;;;;;;2.05;0.90;;;;;;;;;;4952612;28;20042;-81
2024/01/22 09:22:22;;;;;;;3.83;1.10;;;;;;;;;;4967931;28;20075;-82
2024/01/22 09:24:47;;;;;;;2.95;1.27;;;;;;;;;;4968916;28;20031;-82
2024/01/22 09:27:13;;;;;;;2.97;1.10;;;;;;;;;;4972619;28;20043;-81
2024/01/22 09:29:42;;;;;;;2.25;1.20;;;;;;;;;;4953051;28;20035;-82
2024/01/22 09:32:08;;;;;;;2.72;1.23;;;;;;;;;;4967510;28;20031;-82
2024/01/22 09:34:34;;;;;;;3.88;1.42;;;;;;;;;;4970598;28;20047;-82
2024/01/22 09:37:00;;;;;;;3.65;1.38;;;;;;;;;;4963072;28;20034;-82
2024/01/22 09:39:26;;;;;;;4.80;1.50;;;;;;;;;;4970236;28;20081;-82
2024/01/22 09:41:52;;;;;;;2.22;1.40;;;;;;;;;;4966305;28;20059;-83
2024/01/22 09:44:18;;;;;;;2.40;1.50;;;;;;;;;;4969585;28;20038;-83
2024/01/22 09:46:46;;;;;;;5.97;1.40;;;;;;;;;;4952765;28;20046;-82
2024/01/22 09:49:11;;;;;;;3.97;1.30;;;;;;;;;;4971250;28;20177;-81
2024/01/22 09:51:44;;;;;;;3.05;1.67;;;;;;;;;;4952447;28;20039;-80
2024/01/22 09:54:12;;;;;;;3.03;1.48;;;;;;;;;;4968531;28;20548;-80
2024/01/22 09:56:38;;;;;;;2.63;1.20;;;;;;;;;;4973613;28;20043;-81
2024/01/22 09:59:15;;;;;;;1.58;1.00;;;;;;;;;;4971901;28;20042;-82
2024/01/22 10:01:42;;;;;;;2.38;1.10;;;;;;;;;;4964440;28;20046;-82
2024/01/22 10:04:13;;;;;;;2.55;1.30;;;;;;;;;;4953206;28;20042;-82
2024/01/22 10:06:40;;;;;;;2.10;1.20;;;;;;;;;;4970202;28;20049;-79
2024/01/22 10:09:05;;;;;;;2.42;1.30;;;;;;;;;;4971758;28;20042;-81
2024/01/22 10:11:31;;;;;;;2.83;1.10;;;;;;;;;;4965336;28;20019;-82
2024/01/22 10:13:57;;;;;;;2.40;1.30;;;;;;;;;;4967584;28;20523;-82
2024/01/22 10:16:27;;;;;;;1.85;1.02;;;;;;;;;;4966481;28;20049;-82
2024/01/22 10:19:07;;;;;;;1.45;0.95;;;;;;;;;;4933564;29;20405;-83
2024/01/22 10:21:33;;;;;;;2.30;1.00;;;;;;;;;;4966437;28;20031;-81
2024/01/22 10:24:01;;;;;;;6.82;1.20;;;;;;;;;;4964053;28;20102;-79
2024/01/22 10:26:27;;;;;;;2.72;1.23;;;;;;;;;;4967511;28;20042;-80
2024/01/22 10:28:54;;;;;;;2.67;1.30;;;;;;;;;;4956886;28;20138;-81
2024/01/22 10:31:20;;;;;;;2.70;1.23;;;;;;;;;;4969021;28;20038;-81
2024/01/22 10:33:46;;;;;;;6.38;1.50;;;;;;;;;;4967905;28;20495;-81
2024/01/22 10:36:16;;;;;;;1.98;1.17;;;;;;;;;;4951330;28;20054;-81
2024/01/22 10:38:47;;;;;;;2.05;1.20;;;;;;;;;;4970843;28;20058;-80
2024/01/22 10:41:22;;;;;;;1.88;1.20;;;;;;;;;;4972500;28;20039;-81
2024/01/22 10:43:49;;;;;;;1.55;1.10;;;;;;;;;;4965263;28;20061;-82
2024/01/22 10:46:15;;;;;;;4.78;1.20;;;;;;;;;;4966235;28;20055;-80
2024/01/22 10:48:42;;;;;;;1.30;1.00;;;;;;;;;;4968106;28;20038;-79
2024/01/22 10:51:08;;;;;;;4.47;1.23;;;;;;;;;;4969939;28;20091;-82
2024/01/22 10:53:34;;;;;;;5.40;1.63;;;;;;;;;;4966189;28;20042;-81
2024/01/22 10:56:03;;;;;;;3.60;1.50;;;;;;;;;;4970731;28;20121;-82
2024/01/22 10:58:50;;;;;;;3.03;1.20;;;;;;;;;;4966467;28;20042;-81
2024/01/22 11:01:19;;;;;;;5.78;1.65;;;;;;;;;;4970350;28;20046;-81
2024/01/22 11:03:55;;;;;;;6.07;1.40;;;;;;;;;;4969785;28;20563;-81
2024/01/22 11:06:23;;;;;;;1.80;1.20;;;;;;;;;;4961682;28;20043;-81
2024/01/22 11:08:53;;;;;;;2.35;1.00;;;;;;;;;;4968057;28;20050;-81
2024/01/22 11:11:26;;;;;;;2.72;1.10;;;;;;;;;;4967621;28;20031;-81
2024/01/22 11:13:56;;;;;;;3.30;1.42;;;;;;;;;;4961986;28;20095;-80
2024/01/22 11:16:22;;;;;;;3.33;1.42;;;;;;;;;;4968302;28;20098;-80
2024/01/22 11:18:57;;;;;;;2.22;1.00;;;;;;;;;;4952989;28;20723;-81
2024/01/22 11:21:24;;;;;;;1.88;0.82;;;;;;;;;;4966738;28;20079;-81
2024/01/22 11:24:19;;;;;;;2.58;0.82;;;;;;;;;;4970740;28;20662;-81
2024/01/22 11:27:03;;;;;;;1.63;0.85;;;;;;;;;;4963364;28;20050;-80
2024/01/22 11:29:29;;;;;;;1.90;0.82;;;;;;;;;;4966995;28;20047;-81
2024/01/22 11:31:56;;;;;;;1.02;0.70;;;;;;;;;;4967058;28;20027;-81
2024/01/22 11:34:40;;;;;;;0.95;0.70;;;;;;;;;;4967855;28;20122;-80
2024/01/22 11:37:06;;;;;;;;;;;;;;;;;;4966114;28;20039;-80
2024/01/22 11:39:43;;;;;;;1.70;0.98;;;;;;;;;;4969099;28;19918;-78
2024/01/22 11:42:25;;;;;;;2.05;1.10;;;;;;;;;;4968245;28;20389;-82
2024/01/22 11:44:51;;;;;;;1.05;0.63;;;;;;;;;;4969346;28;20035;-80
2024/01/22 11:47:19;;;;;;;1.55;0.70;;;;;;;;;;4968271;28;20035;-80
2024/01/22 11:49:45;;;;;;;1.10;0.80;;;;;;;;;;4966567;28;20350;-81
2024/01/22 11:52:13;;;;;;;0.85;0.80;;;;;;;;;;4970472;28;20129;-82
2024/01/22 11:54:55;;;;;;;1.23;0.80;;;;;;;;;;4965563;28;20047;-84
2024/01/22 11:57:21;;;;;;;1.80;1.30;;;;;;;;;;4971630;28;20039;-81
2024/01/22 12:00:05;;;;;;;2.58;1.40;;;;;;;;;;4973333;28;20027;-81
2024/01/22 12:02:37;;;;;;;2.40;1.60;;;;;;;;;;4971957;28;20065;-81
2024/01/22 12:05:09;;;;;;;3.38;1.20;;;;;;;;;;4972400;28;20039;-81
2024/01/22 12:07:40;;;;;;;2.08;1.30;;;;;;;;;;4966959;28;20086;-82
2024/01/22 12:10:27;;;;;;;2.20;1.30;;;;;;;;;;4969692;28;20044;-82
2024/01/22 12:13:00;;;;;;;3.05;1.80;;;;;;;;;;4971208;28;20034;-83
2024/01/22 12:15:28;;;;;;;4.05;1.60;;;;;;;;;;4970520;28;20047;-82
2024/01/22 12:17:55;;;;;;;2.22;1.42;;;;;;;;;;4969668;28;20039;-83
2024/01/22 12:20:22;;;;;;;5.07;1.40;;;;;;;;;;4961327;28;20038;-81
2024/01/22 12:23:03;;;;;;;3.90;1.40;;;;;;;;;;4971145;28;20497;-83
2024/01/22 12:25:41;;;;;;;2.28;1.33;;;;;;;;;;4971423;28;20078;-83
2024/01/22 12:28:09;;;;;;;4.20;1.20;;;;;;;;;;4973313;28;20508;-82
2024/01/22 12:30:35;;;;;;;3.45;1.58;;;;;;;;;;4970343;28;20047;-82
2024/01/22 12:33:00;;;;;;;5.40;2.25;;;;;;;;;;4968724;28;20450;-80
2024/01/22 12:35:26;;;;;;;4.57;2.00;;;;;;;;;;4971610;28;20497;-81
2024/01/22 12:37:51;;;;;;;4.78;1.30;;;;;;;;;;4968315;28;20035;-83
2024/01/22 12:40:18;;;;;;;5.57;1.83;;;;;;;;;;4968733;28;20038;-82
2024/01/22 12:42:46;;;;;;;3.15;1.40;;;;;;;;;;4972631;28;20465;-81
2024/01/22 12:45:14;;;;;;;2.63;1.58;;;;;;;;;;4974283;28;20058;-81
2024/01/22 12:47:40;;;;;;;3.00;1.80;;;;;;;;;;4957865;28;20031;-81
2024/01/22 12:50:09;;;;;;;58.45;24.85;;;;;;;;;;4972809;28;20151;-80
2024/01/22 12:52:35;;;;;;;13.07;5.70;;;;;;;;;;4972744;28;20031;-80
2024/01/22 12:55:03;;;;;;;4.45;1.70;;;;;;;;;;4972766;28;20045;-81
2024/01/22 12:57:29;;;;;;;2.53;1.23;;;;;;;;;;4972913;28;20031;-81
2024/01/22 12:59:54;;;;;;;3.20;2.00;;;;;;;;;;4972472;28;20508;-81
2024/01/22 13:02:19;;;;;;;7.20;1.90;;;;;;;;;;4974615;28;20085;-82
2024/01/22 13:04:45;;;;;;;3.92;1.77;;;;;;;;;;4972153;28;20137;-81
2024/01/22 13:07:10;;;;;;;2.72;1.55;;;;;;;;;;4973270;28;20038;-79
2024/01/22 13:09:37;;;;;;;4.22;1.60;;;;;;;;;;4972756;28;20497;-81
2024/01/22 13:12:04;;;;;;;2.40;1.30;;;;;;;;;;4968519;28;20034;-82
2024/01/22 13:14:30;;;;;;;4.82;1.70;;;;;;;;;;4968982;28;20046;-81
2024/01/22 13:17:01;;;;;;;8.85;1.60;;;;;;;;;;4967395;28;20126;-82
2024/01/22 13:19:27;;;;;;;5.82;1.65;;;;;;;;;;4964802;28;20055;-81
2024/01/22 13:21:52;;;;;;;6.30;1.75;;;;;;;;;;4965973;28;20039;-80
2024/01/22 13:24:18;;;;;;;4.18;1.80;;;;;;;;;;4964482;28;20037;-82
2024/01/22 13:26:45;;;;;;;2.65;1.30;;;;;;;;;;4962743;28;20092;-81
2024/01/22 13:29:10;;;;;;;3.58;1.50;;;;;;;;;;4972819;28;20081;-80
2024/01/22 13:31:36;;;;;;;5.70;2.30;;;;;;;;;;4971283;28;20075;-81
2024/01/22 13:34:02;;;;;;;91.18;26.63;;;;;;;;;;4968313;28;20512;-81
2024/01/22 13:36:27;;;;;;;37.92;13.65;;;;;;;;;;4968695;28;20036;-86
2024/01/22 13:38:52;;;;;;;36.75;13.18;;;;;;;;;;4970405;28;20512;-85
2024/01/22 13:41:20;;;;;;;12.55;4.60;;;;;;;;;;4968611;28;20049;-83
2024/01/22 13:43:46;;;;;;;4.88;1.77;;;;;;;;;;4966187;28;20050;-83
2024/01/22 13:46:12;;;;;;;2.42;1.42;;;;;;;;;;4937895;28;20448;-83
2024/01/22 13:48:39;;;;;;;3.42;1.65;;;;;;;;;;4968714;28;20110;-84
2024/01/22 13:51:05;;;;;;;4.55;1.85;;;;;;;;;;4951611;28;20015;-82
2024/01/22 13:53:31;;;;;;;5.60;1.90;;;;;;;;;;4966775;28;20183;-82
2024/01/22 13:55:56;;;;;;;4.70;1.70;;;;;;;;;;4967410;28;20039;-82
2024/01/22 13:58:22;;;;;;;7.63;2.50;;;;;;;;;;4965929;28;20616;-83
2024/01/22 14:00:47;;;;;;;6.68;2.53;;;;;;;;;;4967980;28;20030;-84
2024/01/22 14:03:13;;;;;;;3.35;1.50;;;;;;;;;;4963130;28;20085;-84
2024/01/22 14:05:38;;;;;;;3.08;1.50;;;;;;;;;;4966631;28;20046;-82
2024/01/22 14:08:04;;;;;;;2.22;1.33;;;;;;;;;;4952750;28;20512;-84
2024/01/22 14:10:30;;;;;;;2.30;1.10;;;;;;;;;;4968582;28;20039;-82
2024/01/22 14:12:55;;;;;;;2.38;0.80;;;;;;;;;;4964498;28;20027;-83
2024/01/22 14:15:21;;;;;;;1.40;0.95;;;;;;;;;;4964066;28;20114;-84
2024/01/22 14:17:47;;;;;;;1.45;1.00;;;;;;;;;;4959122;28;20066;-84
2024/01/22 14:20:12;;;;;;;2.13;1.20;;;;;;;;;;4965660;28;20042;-82
2024/01/22 14:22:38;;;;;;;1.95;1.17;;;;;;;;;;4949651;28;20066;-81
2024/01/22 14:25:07;;;;;;;2.42;1.40;;;;;;;;;;4968778;28;20042;-84
2024/01/22 14:27:33;;;;;;;2.45;1.27;;;;;;;;;;4964232;28;20045;-84
2024/01/22 14:29:59;;;;;;;2.65;1.33;;;;;;;;;;4950019;28;20118;-83
2024/01/22 14:32:27;;;;;;;5.97;1.65;;;;;;;;;;4952470;28;20038;-83
2024/01/22 14:34:52;;;;;;;9.30;1.50;;;;;;;;;;4960607;28;20031;-82
2024/01/22 14:37:19;;;;;;;2.63;1.40;;;;;;;;;;4965898;28;20099;-84
2024/01/22 14:39:44;;;;;;;2.83;1.60;;;;;;;;;;4948973;29;20039;-86